ADDS METAR Data INFO
IDs: Format: Raw Decoded Include TAF

Data at: 0223 UTC 14 Dec 2017

KCIN 140215Z AUTO 33016G24KT 10SM FEW037 OVC045 01/M04 A2989 RMK AO2
KCIN 140155Z AUTO 34019KT 10SM OVC043 01/M04 A2989 RMK AO2
KCIN 140135Z AUTO 34017KT 10SM OVC041 01/M03 A2989 RMK AO2
KCIN 140115Z AUTO 35020KT 10SM OVC037 01/M03 A2988 RMK AO2
KCIN 140055Z AUTO 35017KT 10SM FEW025 OVC035 02/M03 A2987 RMK AO2
KCIN 140035Z AUTO 35016G27KT 10SM BKN026 OVC032 02/M03 A2986 RMK AO2
KCIN 140015Z AUTO 33017G24KT 10SM BKN025 OVC032 02/M02 A2985 RMK AO2
KCIN 132355Z AUTO 33015G23KT 10SM BKN026 OVC036 03/M02 A2984 RMK AO2
KCIN 132335Z AUTO 32017G25KT 10SM OVC037 03/M02 A2983 RMK AO2
KCIN 132315Z AUTO 33022KT 10SM OVC034 03/M02 A2982 RMK AO2
KCIN 132255Z AUTO 33020G25KT 10SM OVC034 03/M02 A2980 RMK AO2
KCIN 132235Z AUTO 33018G26KT 10SM FEW022 BKN027 OVC031 03/M02 A2980 RMK AO2
KCIN 132215Z AUTO 33021G27KT 10SM SCT022 OVC028 03/M01 A2979 RMK AO2
KCIN 132155Z AUTO 33027G32KT 10SM OVC022 03/M01 A2978 RMK AO2
KCIN 132135Z AUTO 34018G24KT 10SM OVC023 04/M01 A2977 RMK AO2
KCIN 132115Z AUTO 33021G28KT 10SM OVC025 04/M01 A2975 RMK AO2
KCIN 132055Z AUTO 32028G37KT 10SM OVC027 05/M01 A2974 RMK AO2
KCIN 132035Z AUTO 32028G33KT 10SM OVC027 05/M01 A2972 RMK AO2
KCIN 132015Z AUTO 33027G38KT 10SM OVC027 05/M01 A2971 RMK AO2
KCIN 131955Z AUTO 33028G38KT 10SM OVC028 05/M01 A2970 RMK AO2
KCIN 131935Z AUTO 32026G34KT 10SM OVC025 05/M00 A2970 RMK AO2
KCIN 131915Z AUTO 34023G36KT 10SM OVC026 06/M00 A2969 RMK AO2
KCIN 131855Z AUTO 32032G37KT 10SM OVC024 06/M00 A2969 RMK AO2
KCIN 131835Z AUTO 33023G33KT 10SM OVC024 06/M00 A2969 RMK AO2
KCIN 131815Z AUTO 33029G37KT 10SM OVC025 06/M00 A2968 RMK AO2
KCIN 131755Z AUTO 34030G43KT 10SM OVC027 06/M01 A2967 RMK AO2
KCIN 131735Z AUTO 32037G45KT 10SM BKN026 06/M00 A2967 RMK AO2
KCIN 131715Z AUTO 32029G41KT 10SM OVC023 07/01 A2966 RMK AO2
KCIN 131655Z AUTO 32034G39KT 10SM OVC023 06/01 A2965 RMK AO2
KCIN 131635Z AUTO 32031G41KT 10SM OVC024 06/01 A2965 RMK AO2
KCIN 131615Z AUTO 32030G39KT 10SM OVC023 06/02 A2964 RMK AO2
KCIN 131555Z AUTO 31025G43KT 10SM OVC020 05/02 A2962 RMK AO2
KCIN 131535Z AUTO 31024G33KT 10SM BKN020 OVC025 05/03 A2961 RMK AO2
KCIN 131515Z AUTO 31022G32KT 5SM +UP FEW019 BKN025 BKN032 05/03 A2960 RMK AO2
KCIN 131455Z AUTO 31030G42KT 5SM -RA SCT023 OVC029 05/03 A2958 RMK AO2
KCIN 131435Z AUTO 32035G46KT 9SM SCT030 BKN070 BKN085 07/01 A2956 RMK AO2
KCIN 131415Z AUTO 31026G40KT 10SM SCT040 BKN070 OVC110 07/00 A2954 RMK AO2
KCIN 131355Z AUTO 31032G41KT 10SM BKN038 BKN044 OVC050 08/M00 A2954 RMK AO2
KCIN 131335Z AUTO 31026G39KT 10SM BKN049 BKN065 OVC100 08/M01 A2953 RMK AO2
KCIN 131315Z AUTO 31021G35KT 10SM FEW070 SCT075 OVC100 09/M01 A2952 RMK AO2
KCIN 131255Z AUTO 30027G37KT 10SM BKN095 OVC120 09/M01 A2952 RMK AO2
KCIN 131235Z AUTO 30021KT 10SM FEW065 BKN075 OVC090 08/M02 A2950 RMK AO2
KCIN 131215Z AUTO 28017G22KT 10SM FEW060 BKN070 BKN120 06/M04 A2949 RMK AO2
KCIN 131155Z AUTO 27017KT 10SM CLR 05/M05 A2949 RMK AO2
KCIN 131135Z AUTO 27015KT 10SM FEW100 05/M05 A2950 RMK AO2
KCIN 131115Z AUTO 27015KT 10SM CLR 04/M05 A2952 RMK AO2
KCIN 131055Z AUTO 27016G21KT 10SM CLR 04/M05 A2952 RMK AO2
KCIN 131035Z AUTO 27016G22KT 10SM CLR 03/M05 A2952 RMK AO2
KCIN 131015Z AUTO 26014G20KT 10SM CLR 03/M05 A2952 RMK AO2
KCIN 130955Z AUTO 26016G22KT 10SM CLR 03/M05 A2952 RMK AO2
KCIN 130935Z AUTO 25015KT 10SM CLR 02/M04 A2953 RMK AO2
KCIN 130915Z AUTO 25015G21KT 10SM CLR 02/M04 A2954 RMK AO2
KCIN 130855Z AUTO 25016G22KT 10SM CLR 02/M04 A2955 RMK AO2
KCIN 130835Z AUTO 23019KT 10SM CLR 02/M04 A2955 RMK AO2
KCIN 130815Z AUTO 23019KT 10SM CLR 02/M04 A2956 RMK AO2
KCIN 130755Z AUTO 23020KT 10SM CLR 01/M04 A2958 RMK AO2
KCIN 130735Z AUTO 23019G25KT 10SM CLR 02/M04 A2960 RMK AO2
KCIN 130715Z AUTO 22019KT 10SM CLR 02/M04 A2962 RMK AO2
KCIN 130655Z AUTO 22018KT 10SM CLR 01/M04 A2963 RMK AO2
KCIN 130635Z AUTO 22017G24KT 10SM CLR 01/M04 A2965 RMK AO2
KCIN 130615Z AUTO 22019G24KT 10SM CLR 01/M04 A2967 RMK AO2
KCIN 130555Z AUTO 22019KT 10SM CLR 01/M04 A2969 RMK AO2
KCIN 130535Z AUTO 21018KT 10SM CLR 01/M04 A2970 RMK AO2
KCIN 130515Z AUTO 22019G25KT 10SM CLR 01/M04 A2973 RMK AO2
KCIN 130455Z AUTO 22017G24KT 10SM CLR 01/M04 A2975 RMK AO2
KCIN 130435Z AUTO 22018KT 10SM FEW034 01/M04 A2975 RMK AO2
KCIN 130415Z AUTO 22017KT 10SM FEW033 01/M04 A2976 RMK AO2
KCIN 130355Z AUTO 22019G25KT 10SM FEW035 01/M04 A2978 RMK AO2
KCIN 130335Z AUTO 22017KT 10SM FEW036 00/M04 A2980 RMK AO2
KCIN 130315Z AUTO 21016KT 10SM CLR M00/M04 A2982 RMK AO2
KCIN 130255Z AUTO 22017KT 10SM CLR 00/M04 A2984 RMK AO2
KCIN 130235Z AUTO 21015KT 10SM CLR 00/M04 A2986 RMK AO2
KCIN 130215Z AUTO 21014KT 10SM CLR M00/M04 A2988 RMK AO2
KCIN 130155Z AUTO 20008KT 10SM CLR M02/M05 A2991 RMK AO2
KCIN 130135Z AUTO 21009KT 10SM CLR M01/M05 A2991 RMK AO2
KCIN 130115Z AUTO 21010KT 10SM CLR M01/M06 A2992 RMK AO2
KCIN 130055Z AUTO 21009KT 10SM CLR M01/M06 A2994 RMK AO2
KCIN 130035Z AUTO 20007KT 10SM CLR M03/M07 A2995 RMK AO2
KCIN 130015Z AUTO 20007KT 8SM CLR M03/M07 A2995 RMK AO2
KCIN 122355Z AUTO 19006KT 9SM CLR M03/M07 A2997 RMK AO2
KCIN 122335Z AUTO 00000KT 10SM CLR M01/M06 A2998 RMK AO2
KCIN 122315Z AUTO 22009KT 9SM CLR M00/M06 A2998 RMK AO2
KCIN 122255Z AUTO 22009KT 10SM CLR 00/M06 A2999 RMK AO2
KCIN 122235Z AUTO 23008KT 9SM CLR 01/M06 A3001 RMK AO2
KCIN 122215Z AUTO 23010KT 9SM CLR 02/M06 A3003 RMK AO2
KCIN 122155Z AUTO 24014KT 10SM CLR 02/M06 A3004 RMK AO2
KCIN 122135Z AUTO 24011KT 9SM CLR 02/M06 A3005 RMK AO2
KCIN 122115Z AUTO 24013KT 10SM FEW032 02/M06 A3005 RMK AO2
KCIN 122055Z AUTO 25013KT 10SM FEW032 02/M06 A3007 RMK AO2
KCIN 122035Z AUTO 24013KT 10SM CLR 02/M06 A3008 RMK AO2
KCIN 122015Z AUTO 24013KT 10SM CLR 02/M06 A3009 RMK AO2
KCIN 121955Z AUTO 25012KT 10SM CLR 01/M07 A3010 RMK AO2
KCIN 121935Z AUTO 26011KT 9SM CLR 00/M07 A3013 RMK AO2
KCIN 121915Z AUTO 26010KT 10SM CLR 00/M07 A3014 RMK AO2
KCIN 121855Z AUTO 26008KT 10SM CLR M00/M07 A3014 RMK AO2
KCIN 121835Z AUTO 29011KT 10SM CLR M01/M07 A3016 RMK AO2
KCIN 121815Z AUTO 25009KT 10SM CLR M01/M08 A3017 RMK AO2
KCIN 121755Z AUTO 27007KT 10SM CLR M02/M08 A3019 RMK AO2
KCIN 121735Z AUTO 28005KT 10SM CLR M02/M09 A3022 RMK AO2
KCIN 121715Z AUTO 31005KT 10SM CLR M03/M10 A3023 RMK AO2
KCIN 121655Z AUTO 28006KT 10SM CLR M04/M10 A3024 RMK AO2
KCIN 121635Z AUTO VRB04KT 10SM CLR M05/M10 A3026 RMK AO2
KCIN 121615Z AUTO VRB05KT 10SM CLR M05/M10 A3026 RMK AO2
KCIN 121555Z AUTO 31009KT 10SM CLR M05/M10 A3026 RMK AO2
KCIN 121535Z AUTO 31007KT 10SM CLR M06/M10 A3026 RMK AO2
KCIN 121515Z AUTO 29008KT 10SM CLR M07/M10 A3026 RMK AO2
KCIN 121455Z AUTO 29010KT 10SM CLR M08/M11 A3026 RMK AO2
KCIN 121435Z AUTO 30008KT 9SM CLR M09/M11 A3028 RMK AO2